»·PEaware :: DCM2670 KTVL-KPSP

DCM2670 :: KTVL-KPSP

FLIGHT INFORMATION

Flight Status: Arrived
Operator: Unknown
More flights by this operator :: More flights under this callsign
Pilot: Henderson P. (1210)
Aircraft: AIRBUS A319
(A319)
More flights by this aircraft type
Origin: KTVL Lake Tahoe
United States
Destination: KPSP Palm Springs Intl
United States
More flights between these airports :: More routes between these airports
Route: +TILTS J5 EHF PMD V137 PSP
File this flight plan on PilotEdge
Remarks:
Altitude:
(Current/Filed)
39,000ft
Speed:
(Current/Filed)
457kts
Departed: 28-Oct-18 04:09 PM
Arrived: 28-Oct-18 05:20 PM
Distance/Time
Traveled:
348nm/1:11
Distance/Time
To Go:
Arrived

Flight Plot

Page will automatically refresh every two minutes.

Flight plan parsing failed; only flown route is shown


Map Options




Map Legend


Flown Route
Filed Route
Departure Airport
Arrival Airport
Navaid (VOR, NDB)
Fix

Horizontal Profiles

Position Reports

Time Latitude Longitude Heading Altitude Ground
Speed
28-Oct-18 15:39 38.892674 -119.998061 28 6273ft 0kts
28-Oct-18 15:40 38.892674 -119.998061 28 6273ft 0kts
28-Oct-18 15:41 38.892674 -119.998061 28 6273ft 0kts
28-Oct-18 15:42 38.892674 -119.998061 28 6273ft 0kts
28-Oct-18 15:43 38.892674 -119.998061 28 6273ft 0kts
28-Oct-18 15:44 38.892674 -119.998061 28 6273ft 0kts
28-Oct-18 15:45 38.892674 -119.998061 28 6273ft 0kts
28-Oct-18 15:46 38.892674 -119.998061 28 6273ft 0kts
28-Oct-18 15:47 38.892674 -119.998061 28 6273ft 0kts
28-Oct-18 15:48 38.892674 -119.998061 28 6273ft 0kts
28-Oct-18 15:49 38.892674 -119.998061 28 6273ft 0kts
28-Oct-18 15:50 38.892674 -119.998061 28 6273ft 0kts
28-Oct-18 15:51 38.892674 -119.998061 28 6273ft 0kts
28-Oct-18 15:52 38.892674 -119.998061 28 6273ft 0kts
28-Oct-18 15:53 38.892674 -119.998061 28 6273ft 0kts
28-Oct-18 15:54 38.892674 -119.998061 28 6273ft 0kts
28-Oct-18 15:55 38.892674 -119.998061 28 6273ft 0kts
28-Oct-18 15:56 38.892674 -119.998061 28 6273ft 0kts
28-Oct-18 15:57 38.892674 -119.998061 28 6273ft 0kts
28-Oct-18 15:58 38.892674 -119.998061 28 6273ft 0kts
28-Oct-18 15:59 38.892674 -119.998061 28 6273ft 0kts
28-Oct-18 16:00 38.892674 -119.998061 28 6273ft 0kts
28-Oct-18 16:01 38.892674 -119.998061 28 6273ft 0kts
28-Oct-18 16:02 38.892674 -119.998061 28 6273ft 0kts
28-Oct-18 16:03 38.892674 -119.998061 28 6273ft 0kts
28-Oct-18 16:04 38.892675 -119.998061 28 6273ft 0kts
28-Oct-18 16:05 38.892675 -119.998060 28 6273ft 0kts
28-Oct-18 16:06 38.892672 -119.997802 127 6273ft 3kts
28-Oct-18 16:07 38.891061 -119.997210 193 6273ft 11kts
28-Oct-18 16:08 38.886584 -119.998524 192 6273ft 20kts
28-Oct-18 16:09 38.882660 -119.999295 115 6273ft 7kts
28-Oct-18 16:10 38.882728 -119.998611 11 6273ft 0kts
28-Oct-18 16:11 38.909815 -119.991489 0 7204ft 207kts
28-Oct-18 16:12 38.964139 -120.011482 334 11601ft 202kts
28-Oct-18 16:13 39.033923 -120.048518 313 11993ft 345kts
28-Oct-18 16:14 39.101806 -120.151130 305 11993ft 389kts
28-Oct-18 16:15 39.172351 -120.257219 305 12008ft 389kts
28-Oct-18 16:16 39.207639 -120.379904 258 11989ft 370kts
28-Oct-18 16:17 39.143977 -120.477530 203 11993ft 381kts
28-Oct-18 16:18 39.041124 -120.447897 139 11991ft 418kts
28-Oct-18 16:19 39.010256 -120.303446 94 12013ft 436kts
28-Oct-18 16:20 39.003796 -120.147688 95 12001ft 436kts
28-Oct-18 16:21 38.981074 -119.998051 127 12048ft 423kts
28-Oct-18 16:22 38.901094 -119.887822 137 12996ft 424kts
28-Oct-18 16:23 38.820228 -119.777391 137 12974ft 424kts
28-Oct-18 16:24 38.739021 -119.667706 137 13138ft 423kts
28-Oct-18 16:25 38.655176 -119.556654 145 15918ft 437kts
28-Oct-18 16:26 38.543461 -119.513297 180 18501ft 427kts
28-Oct-18 16:27 38.422690 -119.496595 179 20836ft 443kts
28-Oct-18 16:28 38.298424 -119.479098 180 22830ft 457kts
28-Oct-18 16:29 38.170408 -119.461099 180 24561ft 468kts
28-Oct-18 16:30 38.040134 -119.442724 180 26408ft 467kts
28-Oct-18 16:31 37.911786 -119.424799 180 28598ft 464kts
28-Oct-18 16:32 37.784590 -119.407054 180 31011ft 456kts
28-Oct-18 16:33 37.659149 -119.389661 180 33119ft 449kts
28-Oct-18 16:34 37.536212 -119.372705 180 34930ft 443kts
28-Oct-18 16:35 37.414308 -119.355899 180 36526ft 438kts
28-Oct-18 16:36 37.293637 -119.339299 180 37905ft 433kts
28-Oct-18 16:37 37.174317 -119.322979 180 39083ft 429kts
28-Oct-18 16:38 37.054578 -119.306643 179 39163ft 428kts
28-Oct-18 16:39 36.935947 -119.290653 179 39145ft 429kts
28-Oct-18 16:40 36.817341 -119.274422 179 39148ft 428kts
28-Oct-18 16:41 36.698554 -119.258418 179 39128ft 429kts
28-Oct-18 16:42 36.579987 -119.242351 179 39105ft 429kts
28-Oct-18 16:43 36.461186 -119.226549 179 39118ft 429kts
28-Oct-18 16:44 36.342562 -119.210585 179 39091ft 429kts
28-Oct-18 16:45 36.223457 -119.194658 179 39084ft 429kts
28-Oct-18 16:46 36.104853 -119.178859 179 39061ft 429kts
28-Oct-18 16:47 35.985712 -119.163110 178 39065ft 430kts
28-Oct-18 16:48 35.867301 -119.147498 179 39098ft 428kts
28-Oct-18 16:49 35.748718 -119.131796 178 39087ft 429kts
28-Oct-18 16:50 35.652433 -119.119075 178 39083ft 429kts
28-Oct-18 16:51 35.534299 -119.103284 176 39097ft 430kts
28-Oct-18 16:52 35.428479 -119.030557 140 39060ft 458kts
28-Oct-18 16:53 35.339465 -118.918858 141 39065ft 456kts
28-Oct-18 16:54 35.249397 -118.809400 140 39096ft 456kts
28-Oct-18 16:55 35.159963 -118.700452 141 39144ft 451kts
28-Oct-18 16:56 35.071431 -118.592940 141 39167ft 445kts
28-Oct-18 16:57 34.983348 -118.486516 141 38133ft 449kts
28-Oct-18 16:58 34.894566 -118.379332 141 35310ft 451kts
28-Oct-18 16:59 34.811206 -118.279095 140 32199ft 459kts
28-Oct-18 17:00 34.719214 -118.168905 139 28297ft 468kts
28-Oct-18 17:01 34.627309 -118.053149 126 24618ft 490kts
28-Oct-18 17:02 34.559782 -117.906567 120 24095ft 502kts
28-Oct-18 17:03 34.491755 -117.758709 120 24083ft 501kts
28-Oct-18 17:04 34.426806 -117.617372 120 21105ft 468kts
28-Oct-18 17:05 34.363886 -117.480660 120 17023ft 449kts
28-Oct-18 17:06 34.302690 -117.349375 120 15963ft 444kts
28-Oct-18 17:07 34.243066 -117.221082 120 15019ft 438kts
28-Oct-18 17:08 34.188407 -117.104137 120 14147ft 433kts
28-Oct-18 17:09 34.129209 -116.977782 120 14134ft 431kts
28-Oct-18 17:10 34.070080 -116.852017 120 14184ft 431kts
28-Oct-18 17:11 34.013554 -116.732260 120 14065ft 422kts
28-Oct-18 17:12 33.957834 -116.615293 121 10823ft 401kts
28-Oct-18 17:13 33.908751 -116.512071 120 9031ft 299kts
28-Oct-18 17:14 33.868608 -116.429230 133 6756ft 280kts
28-Oct-18 17:15 33.811275 -116.373394 143 5540ft 238kts
28-Oct-18 17:16 33.762776 -116.352408 224 5129ft 161kts
28-Oct-18 17:17 33.740533 -116.388628 231 4213ft 125kts
28-Oct-18 17:18 33.739961 -116.425260 320 2783ft 127kts
28-Oct-18 17:19 33.767516 -116.450342 322 1904ft 122kts
28-Oct-18 17:20 33.794403 -116.475296 319 1215ft 122kts
28-Oct-18 17:22 33.821396 -116.500310 325 574ft 118kts
28-Oct-18 17:23 33.833251 -116.511636 230 491ft 6kts
28-Oct-18 17:24 33.831432 -116.511390 143 491ft 9kts
28-Oct-18 17:25 33.828611 -116.508805 136 491ft 15kts
28-Oct-18 17:26 33.825795 -116.507194 192 491ft 6kts
28-Oct-18 17:27 33.825417 -116.509106 285 491ft 7kts
28-Oct-18 17:28 33.825435 -116.509471 90 491ft 0kts
28-Oct-18 17:29 33.825435 -116.509471 90 491ft 0kts

Navigation Log

Ident Type
Flight plan parsing failed, navigation log unavailable